Time;durP1;ratioP1;P1;durP2;ratioP2;P2;SDS_P1;SDS_P2;PMS_P1;PMS_P2;Temp;Humidity;BMP_temperature;BMP_pressure;BME280_temperature;BME280_humidity;BME280_pressure;Samples;Min_cycle;Max_cycle;Signal;HPM_P1;HPM_P2
2022/09/06 00:01:40;;;;;;;2.08;0.70;;;21.00;99.90;;;;;;4988567;28;20100;-83
2022/09/06 00:04:06;;;;;;;1.55;0.50;;;20.90;99.90;;;;;;4973593;28;20606;-83
2022/09/06 00:06:31;;;;;;;2.22;0.55;;;20.90;99.90;;;;;;4986555;28;20026;-82
2022/09/06 00:08:57;;;;;;;1.30;0.50;;;20.90;99.90;;;;;;4985562;28;20537;-84
2022/09/06 00:11:22;;;;;;;1.15;0.50;;;20.90;99.90;;;;;;4987749;28;20027;-83
2022/09/06 00:13:48;;;;;;;2.35;0.50;;;20.90;99.90;;;;;;4980249;28;20054;-84
2022/09/06 00:16:17;;;;;;;1.58;0.50;;;20.90;99.90;;;;;;4987950;28;20041;-83
2022/09/06 00:18:43;;;;;;;1.50;0.50;;;20.90;99.90;;;;;;4986231;28;20478;-83
2022/09/06 00:21:21;;;;;;;3.15;0.68;;;20.90;99.90;;;;;;4986325;28;20042;-83
2022/09/06 00:23:47;;;;;;;1.05;0.40;;;20.80;99.90;;;;;;4984707;28;20088;-83
2022/09/06 00:26:13;;;;;;;1.95;0.40;;;20.80;99.90;;;;;;4987146;28;20427;-82
2022/09/06 00:28:39;;;;;;;1.98;0.40;;;20.80;99.90;;;;;;4985839;28;20459;-83
2022/09/06 00:31:10;;;;;;;1.35;0.43;;;20.80;99.90;;;;;;4986723;28;20097;-83
2022/09/06 00:33:36;;;;;;;0.93;0.30;;;20.80;99.90;;;;;;4987739;28;20053;-83
2022/09/06 00:36:02;;;;;;;1.75;0.50;;;20.80;99.90;;;;;;4987123;28;20022;-83
2022/09/06 00:38:28;;;;;;;1.55;0.30;;;20.80;99.90;;;;;;4988220;28;20026;-82
2022/09/06 00:40:53;;;;;;;2.58;0.40;;;20.80;99.90;;;;;;4984189;28;20141;-82
2022/09/06 00:43:19;;;;;;;1.55;0.32;;;20.70;99.90;;;;;;4983687;28;20398;-83
2022/09/06 00:45:45;;;;;;;1.38;0.40;;;20.70;99.90;;;;;;4983992;28;20460;-83
2022/09/06 00:48:11;;;;;;;1.65;0.30;;;20.70;99.90;;;;;;4986611;28;20093;-83
2022/09/06 00:50:36;;;;;;;3.30;0.45;;;20.70;99.90;;;;;;4986807;28;20030;-83
2022/09/06 00:53:02;;;;;;;1.30;0.40;;;20.70;99.90;;;;;;4984982;28;20502;-82
2022/09/06 00:55:28;;;;;;;0.82;0.40;;;20.70;99.90;;;;;;4985098;28;20506;-83
2022/09/06 00:57:55;;;;;;;1.33;0.40;;;20.60;99.90;;;;;;4998271;28;20023;-83
2022/09/06 01:00:21;;;;;;;1.85;0.40;;;20.70;99.90;;;;;;4986949;28;20026;-81
2022/09/06 01:02:47;;;;;;;1.55;0.30;;;20.60;99.90;;;;;;4978782;28;20026;-81
2022/09/06 01:05:13;;;;;;;1.20;0.40;;;20.60;99.90;;;;;;4983784;28;20475;-81
2022/09/06 01:07:45;;;;;;;1.23;0.40;;;20.60;99.90;;;;;;4986374;28;20036;-81
2022/09/06 01:10:29;;;;;;;2.03;0.40;;;20.60;99.90;;;;;;4985107;28;20470;-81
2022/09/06 01:13:06;;;;;;;1.73;0.30;;;20.60;99.90;;;;;;4985680;28;20022;-80
2022/09/06 01:15:58;;;;;;;1.67;0.40;;;20.60;99.90;;;;;;4982012;28;20038;-81
2022/09/06 01:18:47;;;;;;;2.40;0.50;;;20.40;99.90;;;;;;4987437;28;22074;-81
2022/09/06 01:21:44;;;;;;;2.85;0.70;;;20.40;99.90;;;;;;4985712;28;20027;-83
2022/09/06 01:24:41;;;;;;;2.17;0.47;;;20.20;99.90;;;;;;4984271;28;20058;-83
2022/09/06 01:27:19;;;;;;;1.25;0.40;;;20.20;99.90;;;;;;4984003;28;20072;-83
2022/09/06 01:29:49;;;;;;;3.33;0.80;;;20.20;99.90;;;;;;4984387;28;20070;-81
2022/09/06 01:32:33;;;;;;;1.85;0.60;;;20.00;99.90;;;;;;4982969;28;20034;-82
2022/09/06 01:35:13;;;;;;;2.05;0.50;;;19.90;99.90;;;;;;4983554;28;20045;-81
2022/09/06 01:37:39;;;;;;;1.48;0.50;;;20.10;99.90;;;;;;4982753;28;20036;-81
2022/09/06 01:40:05;;;;;;;1.23;0.40;;;20.00;99.90;;;;;;4984880;28;20139;-80
2022/09/06 01:42:32;;;;;;;2.30;0.50;;;19.90;99.90;;;;;;4983409;28;20403;-83
2022/09/06 01:45:06;;;;;;;1.55;0.60;;;19.90;99.90;;;;;;4985258;28;20033;-84
2022/09/06 01:48:01;;;;;;;2.35;0.70;;;19.80;99.90;;;;;;4999880;28;20081;-83
2022/09/06 01:50:56;;;;;;;1.50;0.40;;;19.80;99.90;;;;;;4986920;28;20030;-83
2022/09/06 01:53:40;;;;;;;1.25;0.40;;;19.80;99.90;;;;;;4981965;28;20483;-83
2022/09/06 01:56:20;;;;;;;1.10;0.30;;;19.70;99.90;;;;;;4983863;28;20058;-83
2022/09/06 01:58:51;;;;;;;2.35;0.50;;;19.60;99.90;;;;;;4987021;28;20483;-83
2022/09/06 02:01:41;;;;;;;2.45;0.77;;;19.50;99.90;;;;;;4987499;28;20460;-84
2022/09/06 02:04:23;;;;;;;5.15;1.02;;;19.40;99.90;;;;;;4984150;28;20018;-83
2022/09/06 02:06:56;;;;;;;4.82;0.70;;;19.30;99.90;;;;;;5001860;28;20494;-84
2022/09/06 02:09:24;;;;;;;2.05;1.00;;;19.30;99.90;;;;;;4985786;28;20061;-84
2022/09/06 02:11:56;;;;;;;1.60;0.73;;;19.20;99.90;;;;;;4984948;28;20027;-83
2022/09/06 02:14:34;;;;;;;1.40;0.70;;;19.20;99.90;;;;;;5000233;28;20177;-84
2022/09/06 02:17:01;;;;;;;1.85;0.50;;;19.20;99.90;;;;;;4983416;28;20166;-83
2022/09/06 02:19:33;;;;;;;0.95;0.40;;;19.30;99.90;;;;;;4984156;28;20037;-83
2022/09/06 02:22:04;;;;;;;2.50;0.50;;;19.30;99.90;;;;;;4983698;28;20457;-83
2022/09/06 02:24:31;;;;;;;1.98;0.50;;;19.30;99.90;;;;;;4980361;28;20035;-83
2022/09/06 02:26:57;;;;;;;1.15;0.50;;;19.30;99.90;;;;;;4983569;28;20027;-83
2022/09/06 02:29:23;;;;;;;0.90;0.40;;;19.30;99.90;;;;;;4986017;28;20034;-82
2022/09/06 02:31:57;;;;;;;0.90;0.40;;;19.40;99.90;;;;;;4980695;28;20030;-83
2022/09/06 02:34:22;;;;;;;1.13;0.40;;;19.40;99.90;;;;;;4984641;28;20034;-83
2022/09/06 02:36:48;;;;;;;1.40;0.40;;;19.50;99.90;;;;;;4982310;28;20029;-83
2022/09/06 02:39:15;;;;;;;2.35;0.40;;;19.50;99.90;;;;;;4986253;28;20427;-83
2022/09/06 02:41:43;;;;;;;1.02;0.40;;;19.50;99.90;;;;;;4983858;28;20054;-83
2022/09/06 02:44:09;;;;;;;1.35;0.47;;;19.50;99.90;;;;;;4984374;28;20049;-83
2022/09/06 02:46:35;;;;;;;0.80;0.35;;;19.50;99.90;;;;;;4986988;28;20030;-83
2022/09/06 02:49:00;;;;;;;1.50;0.40;;;19.50;99.90;;;;;;4984213;28;20109;-83
2022/09/06 02:51:26;;;;;;;1.20;0.40;;;19.50;99.90;;;;;;4971194;28;20022;-83
2022/09/06 02:53:52;;;;;;;1.25;0.40;;;19.40;99.90;;;;;;4983927;28;20070;-83
2022/09/06 02:56:17;;;;;;;1.05;0.45;;;19.40;99.90;;;;;;4985498;28;20125;-83
2022/09/06 02:58:43;;;;;;;1.27;0.50;;;19.40;99.90;;;;;;4983575;28;20556;-83
2022/09/06 03:01:09;;;;;;;1.70;0.68;;;19.30;99.90;;;;;;4983469;28;20035;-83
2022/09/06 03:03:34;;;;;;;1.30;0.57;;;19.30;99.90;;;;;;4985302;28;20109;-83
2022/09/06 03:06:00;;;;;;;1.60;0.50;;;19.30;99.90;;;;;;4985011;28;20065;-83
2022/09/06 03:08:32;;;;;;;2.65;0.45;;;19.40;99.90;;;;;;4985257;28;20023;-83
2022/09/06 03:10:57;;;;;;;1.40;0.50;;;19.30;99.90;;;;;;4982276;28;20054;-83
2022/09/06 03:13:23;;;;;;;0.82;0.40;;;19.40;99.90;;;;;;4984168;28;20057;-83
2022/09/06 03:15:54;;;;;;;1.20;0.50;;;19.30;99.90;;;;;;4981122;28;20407;-84
2022/09/06 03:18:20;;;;;;;3.05;0.50;;;19.40;99.90;;;;;;4982179;28;20030;-83
2022/09/06 03:20:49;;;;;;;1.23;0.40;;;19.40;99.90;;;;;;4982866;28;20085;-83
2022/09/06 03:23:14;;;;;;;1.60;0.50;;;19.40;99.90;;;;;;4981370;28;20085;-83
2022/09/06 03:25:41;;;;;;;2.15;0.40;;;19.30;99.90;;;;;;4984104;28;20034;-83
2022/09/06 03:28:07;;;;;;;1.40;0.40;;;19.40;99.90;;;;;;4981434;28;20030;-83
2022/09/06 03:30:33;;;;;;;1.15;0.40;;;19.40;99.90;;;;;;4985117;28;20026;-83
2022/09/06 03:32:59;;;;;;;0.80;0.40;;;19.40;99.90;;;;;;4985343;28;20112;-83
2022/09/06 03:35:24;;;;;;;0.75;0.40;;;19.40;99.90;;;;;;4983199;28;20038;-83
2022/09/06 03:37:50;;;;;;;1.83;0.50;;;19.40;99.90;;;;;;4984120;28;20026;-84
2022/09/06 03:40:15;;;;;;;1.55;0.57;;;19.40;99.90;;;;;;4985584;28;20117;-83
2022/09/06 03:42:41;;;;;;;1.73;0.50;;;19.40;99.90;;;;;;4982327;28;20084;-83
2022/09/06 03:45:07;;;;;;;1.60;0.50;;;19.30;99.90;;;;;;4983479;28;20027;-83
2022/09/06 03:47:33;;;;;;;1.75;0.60;;;19.30;99.90;;;;;;4982843;28;20030;-83
2022/09/06 03:49:58;;;;;;;1.27;0.40;;;19.30;99.90;;;;;;4980634;28;20034;-83
2022/09/06 03:52:24;;;;;;;2.28;0.55;;;19.30;99.90;;;;;;4984970;28;20030;-83
2022/09/06 03:54:50;;;;;;;1.27;0.50;;;19.30;99.90;;;;;;4998334;28;20046;-83
2022/09/06 03:57:15;;;;;;;2.00;0.75;;;19.10;99.90;;;;;;4965625;28;20042;-82
2022/09/06 03:59:41;;;;;;;2.28;0.93;;;19.00;99.90;;;;;;4982203;28;20030;-83
2022/09/06 04:02:07;;;;;;;1.52;0.60;;;19.00;99.90;;;;;;4983614;28;20030;-83
2022/09/06 04:04:32;;;;;;;2.28;0.77;;;19.00;99.90;;;;;;4983686;28;20027;-83
2022/09/06 04:06:58;;;;;;;1.65;0.60;;;19.00;99.90;;;;;;4984458;28;20443;-83
2022/09/06 04:09:23;;;;;;;1.27;0.50;;;19.00;99.90;;;;;;4983467;28;20027;-83
2022/09/06 04:11:49;;;;;;;1.75;0.50;;;19.00;99.90;;;;;;4983379;28;20026;-82
2022/09/06 04:14:15;;;;;;;0.90;0.32;;;19.00;99.90;;;;;;4982652;28;20403;-83
2022/09/06 04:16:40;;;;;;;0.90;0.30;;;19.10;99.90;;;;;;4983129;28;20057;-83
2022/09/06 04:19:06;;;;;;;0.90;0.40;;;19.10;99.90;;;;;;4986413;28;20038;-83
2022/09/06 04:21:32;;;;;;;1.58;0.40;;;19.10;99.90;;;;;;4985925;28;20027;-83
2022/09/06 04:23:58;;;;;;;1.40;0.30;;;19.10;99.90;;;;;;4995231;28;20045;-84
2022/09/06 04:26:23;;;;;;;1.45;0.43;;;18.90;99.90;;;;;;4988269;28;20061;-82
2022/09/06 04:28:49;;;;;;;1.15;0.50;;;18.70;99.90;;;;;;4984555;28;20045;-82
2022/09/06 04:31:14;;;;;;;1.65;0.52;;;18.70;99.90;;;;;;4981271;28;20502;-82
2022/09/06 04:33:40;;;;;;;1.13;0.43;;;18.70;99.90;;;;;;4984801;28;20249;-81
2022/09/06 04:36:09;;;;;;;1.10;0.50;;;18.80;99.90;;;;;;4996133;28;20026;-83
2022/09/06 04:38:37;;;;;;;1.98;0.50;;;18.90;99.90;;;;;;4985630;28;20037;-82
2022/09/06 04:41:04;;;;;;;1.38;0.60;;;18.80;99.90;;;;;;4987722;28;20100;-82
2022/09/06 04:43:30;;;;;;;1.77;0.50;;;18.80;99.90;;;;;;4983826;28;20023;-82
2022/09/06 04:46:23;;;;;;;1.63;0.60;;;18.80;99.90;;;;;;4984184;28;20035;-82
2022/09/06 04:48:50;;;;;;;1.40;0.60;;;18.80;99.90;;;;;;4984194;28;20034;-81
2022/09/06 04:51:17;;;;;;;2.85;0.52;;;18.70;99.90;;;;;;4988866;28;20031;-81
2022/09/06 04:53:44;;;;;;;1.48;0.50;;;18.70;99.90;;;;;;4985554;28;20039;-82
2022/09/06 04:56:20;;;;;;;2.03;0.60;;;18.80;99.90;;;;;;4984628;28;20073;-82
2022/09/06 04:58:47;;;;;;;1.48;0.60;;;18.80;99.90;;;;;;4998125;28;20549;-82
2022/09/06 05:01:13;;;;;;;2.85;0.70;;;18.70;99.90;;;;;;4983532;28;20038;-83
2022/09/06 05:03:41;;;;;;;1.90;0.60;;;18.70;99.90;;;;;;4984974;28;20034;-82
2022/09/06 05:06:26;;;;;;;1.58;0.50;;;18.60;99.90;;;;;;4984919;28;20058;-82
2022/09/06 05:08:52;;;;;;;1.65;0.60;;;18.60;99.90;;;;;;4984162;28;20089;-82
2022/09/06 05:11:18;;;;;;;1.25;0.60;;;18.50;99.90;;;;;;4987906;28;20030;-82
2022/09/06 05:13:46;;;;;;;2.33;0.77;;;18.50;99.90;;;;;;4970248;28;20344;-80
2022/09/06 05:16:11;;;;;;;1.55;0.60;;;18.40;99.90;;;;;;4984807;28;20438;-81
2022/09/06 05:18:37;;;;;;;1.48;0.65;;;18.30;99.90;;;;;;4986919;28;20096;-80
2022/09/06 05:21:03;;;;;;;1.30;0.60;;;18.30;99.90;;;;;;5000110;28;20084;-80
2022/09/06 05:23:28;;;;;;;1.60;0.60;;;18.20;99.90;;;;;;4982541;28;20030;-80
2022/09/06 05:25:54;;;;;;;4.18;0.70;;;18.20;99.90;;;;;;4981711;28;20103;-81
2022/09/06 05:28:20;;;;;;;1.20;0.57;;;18.30;99.90;;;;;;4971468;28;20037;-81
2022/09/06 05:30:46;;;;;;;1.90;0.60;;;18.30;99.90;;;;;;4977912;28;20085;-81
2022/09/06 05:33:17;;;;;;;3.20;0.70;;;18.40;99.90;;;;;;4992926;28;20030;-80
2022/09/06 05:35:43;;;;;;;1.45;0.73;;;18.50;99.90;;;;;;4983829;28;20383;-81
2022/09/06 05:38:08;;;;;;;2.45;0.95;;;18.50;99.90;;;;;;4968383;28;20081;-80
2022/09/06 05:40:34;;;;;;;1.98;0.65;;;18.50;99.90;;;;;;4969547;28;20131;-81
2022/09/06 05:43:00;;;;;;;2.30;0.95;;;18.50;99.90;;;;;;4984675;28;20061;-80
2022/09/06 05:45:25;;;;;;;2.78;0.75;;;18.50;99.90;;;;;;4983667;28;20049;-80
2022/09/06 05:47:51;;;;;;;1.75;0.68;;;18.50;99.90;;;;;;4984508;28;20019;-80
2022/09/06 05:50:17;;;;;;;5.45;0.80;;;18.60;99.90;;;;;;4971042;28;20172;-80
2022/09/06 05:52:42;;;;;;;1.92;0.90;;;18.70;99.90;;;;;;4973678;28;20136;-81
2022/09/06 05:55:08;;;;;;;2.47;1.00;;;18.80;99.90;;;;;;4990843;28;20224;-80
2022/09/06 05:57:34;;;;;;;3.85;0.82;;;18.90;99.90;;;;;;4990591;28;20112;-80
2022/09/06 05:59:59;;;;;;;2.05;0.88;;;18.90;99.90;;;;;;4993665;28;20034;-80
2022/09/06 06:02:25;;;;;;;3.22;0.75;;;19.00;99.90;;;;;;4992427;28;20101;-80
2022/09/06 06:04:51;;;;;;;2.45;0.90;;;19.00;99.90;;;;;;4963005;28;20038;-80
2022/09/06 06:07:17;;;;;;;1.80;1.00;;;19.10;99.90;;;;;;4991995;28;20026;-80
2022/09/06 06:09:43;;;;;;;2.50;1.35;;;19.10;99.90;;;;;;4990116;28;20430;-80
2022/09/06 06:12:09;;;;;;;3.88;1.13;;;19.10;99.90;;;;;;4990810;28;20459;-80
2022/09/06 06:14:35;;;;;;;3.17;1.80;;;19.10;99.90;;;;;;4985706;28;20038;-80
2022/09/06 06:17:01;;;;;;;4.68;1.58;;;19.00;99.90;;;;;;4989062;28;20073;-81
2022/09/06 06:19:27;;;;;;;2.28;1.45;;;19.00;99.90;;;;;;4992317;28;20027;-79
2022/09/06 06:21:55;;;;;;;4.07;1.83;;;19.00;99.90;;;;;;4991441;28;20033;-80
2022/09/06 06:24:21;;;;;;;2.33;1.30;;;19.00;99.90;;;;;;4989787;28;20041;-80
2022/09/06 06:26:46;;;;;;;2.65;1.50;;;19.10;99.90;;;;;;4991628;28;20038;-80
2022/09/06 06:29:13;;;;;;;3.45;1.10;;;19.10;99.90;;;;;;4963199;28;20125;-79
2022/09/06 06:31:39;;;;;;;2.22;1.20;;;19.10;99.90;;;;;;4989852;28;20030;-80
2022/09/06 06:34:05;;;;;;;4.30;1.10;;;19.10;99.90;;;;;;4989589;28;20029;-80
2022/09/06 06:36:33;;;;;;;2.47;1.00;;;19.10;99.90;;;;;;4993666;28;20058;-81
2022/09/06 06:39:01;;;;;;;4.00;1.55;;;19.10;99.90;;;;;;4989512;28;20036;-80
2022/09/06 06:41:29;;;;;;;1.80;1.20;;;19.00;99.90;;;;;;4971289;28;20050;-80
2022/09/06 06:43:57;;;;;;;2.30;1.38;;;19.00;99.90;;;;;;4986211;28;20041;-81
2022/09/06 06:46:25;;;;;;;2.35;1.00;;;19.20;99.90;;;;;;4976930;28;20482;-81
2022/09/06 06:48:53;;;;;;;2.70;1.42;;;19.40;99.90;;;;;;4976452;28;20030;-81
2022/09/06 06:51:20;;;;;;;3.53;1.48;;;19.70;99.90;;;;;;4986420;28;20097;-81
2022/09/06 06:53:47;;;;;;;3.35;1.23;;;19.80;99.90;;;;;;4984582;28;20568;-81
2022/09/06 06:56:17;;;;;;;4.25;1.75;;;20.10;99.90;;;;;;4985887;28;20337;-82
2022/09/06 06:58:44;;;;;;;2.90;1.52;;;20.10;99.90;;;;;;4977511;28;20058;-82
2022/09/06 07:01:12;;;;;;;2.10;1.10;;;20.30;99.90;;;;;;4987616;28;20026;-81
2022/09/06 07:03:38;;;;;;;2.00;1.38;;;20.40;99.90;;;;;;4988619;28;20042;-81
2022/09/06 07:06:04;;;;;;;3.45;1.30;;;20.50;99.90;;;;;;4977813;28;20034;-82
2022/09/06 07:08:30;;;;;;;2.88;1.50;;;20.60;99.90;;;;;;4987574;28;20053;-81
2022/09/06 07:10:55;;;;;;;2.60;1.42;;;20.60;99.90;;;;;;4974270;28;20491;-81
2022/09/06 07:13:21;;;;;;;2.75;1.10;;;20.80;99.90;;;;;;4988524;28;20079;-81
2022/09/06 07:15:47;;;;;;;1.75;1.10;;;21.00;99.90;;;;;;4975618;28;20608;-81
2022/09/06 07:18:16;;;;;;;1.90;1.05;;;21.20;99.90;;;;;;4988423;28;20041;-81
2022/09/06 07:20:42;;;;;;;2.13;1.10;;;21.30;99.90;;;;;;4994116;28;20499;-81
2022/09/06 07:23:08;;;;;;;2.75;1.27;;;21.40;99.90;;;;;;4988006;28;20027;-80
2022/09/06 07:25:34;;;;;;;2.67;1.45;;;21.50;99.90;;;;;;4971810;28;20530;-81
2022/09/06 07:28:05;;;;;;;2.80;1.05;;;21.70;99.90;;;;;;4988639;28;20034;-80
2022/09/06 07:30:32;;;;;;;1.80;1.02;;;21.80;99.90;;;;;;4989536;28;20030;-80
2022/09/06 07:32:59;;;;;;;2.05;1.10;;;22.00;99.90;;;;;;4986129;28;20037;-80
2022/09/06 07:35:25;;;;;;;5.97;1.10;;;22.10;99.90;;;;;;4969546;28;20188;-80
2022/09/06 07:37:56;;;;;;;1.88;0.90;;;22.20;99.90;;;;;;4988650;28;20034;-81
2022/09/06 07:40:22;;;;;;;1.70;0.63;;;22.30;99.90;;;;;;4986047;28;20053;-81
2022/09/06 07:42:48;;;;;;;2.47;0.77;;;22.50;99.90;;;;;;4958502;28;20041;-81
2022/09/06 07:45:14;;;;;;;2.90;1.10;;;22.70;99.90;;;;;;4974432;28;20042;-80
2022/09/06 07:47:40;;;;;;;1.55;0.80;;;22.70;99.90;;;;;;4977951;28;20491;-80
2022/09/06 07:50:06;;;;;;;2.25;1.00;;;22.90;99.90;;;;;;4988397;28;20030;-81
2022/09/06 07:52:32;;;;;;;1.73;1.08;;;22.90;99.90;;;;;;4991696;28;20081;-81
2022/09/06 07:54:58;;;;;;;1.80;0.85;;;23.00;99.90;;;;;;4975447;28;20463;-81
2022/09/06 07:57:24;;;;;;;1.95;1.00;;;23.20;99.90;;;;;;4991850;28;20030;-81
2022/09/06 07:59:50;;;;;;;2.60;1.55;;;23.40;99.90;;;;;;4971416;28;20042;-81
2022/09/06 08:02:16;;;;;;;4.45;1.27;;;23.40;99.90;;;;;;4980155;28;20049;-80
2022/09/06 08:04:43;;;;;;;3.90;0.95;;;23.30;99.90;;;;;;4994138;28;20525;-81
2022/09/06 08:07:09;;;;;;;2.83;1.23;;;23.40;99.90;;;;;;4974074;28;20076;-82
2022/09/06 08:09:35;;;;;;;1.77;0.82;;;23.60;99.90;;;;;;4990308;28;20138;-81
2022/09/06 08:12:08;;;;;;;2.08;1.05;;;23.70;99.90;;;;;;4997655;28;20037;-80
2022/09/06 08:14:34;;;;;;;3.05;0.90;;;23.90;99.90;;;;;;4995149;28;20095;-80
2022/09/06 08:17:00;;;;;;;2.38;1.00;;;24.00;99.90;;;;;;4990861;28;20042;-81
2022/09/06 08:19:26;;;;;;;2.15;0.98;;;24.00;99.90;;;;;;4988832;28;20030;-81
2022/09/06 08:21:53;;;;;;;2.85;1.08;;;24.10;99.90;;;;;;4990484;28;20026;-81
2022/09/06 08:24:19;;;;;;;2.08;0.70;;;24.30;99.90;;;;;;4980679;28;20045;-81
2022/09/06 08:26:45;;;;;;;3.30;0.60;;;24.30;99.90;;;;;;4973241;28;20050;-81
2022/09/06 08:29:12;;;;;;;2.72;0.60;;;24.70;99.90;;;;;;4974517;28;20050;-81
2022/09/06 08:31:40;;;;;;;2.95;0.75;;;24.90;99.90;;;;;;4990151;28;20125;-80
2022/09/06 08:34:06;;;;;;;2.05;0.73;;;24.90;99.90;;;;;;4991771;28;20030;-81
2022/09/06 08:36:33;;;;;;;3.17;0.85;;;25.00;99.90;;;;;;4973087;28;20109;-82
2022/09/06 08:39:00;;;;;;;2.70;0.80;;;25.10;99.90;;;;;;4987372;28;20034;-81
2022/09/06 08:41:41;;;;;;;1.60;0.77;;;24.90;99.90;;;;;;4980659;28;20057;-81
2022/09/06 08:44:13;;;;;;;3.42;0.70;;;25.20;99.90;;;;;;4993044;28;20038;-81
2022/09/06 08:46:51;;;;;;;1.70;0.93;;;25.50;99.90;;;;;;4981068;28;20308;-82
2022/09/06 08:49:17;;;;;;;1.83;0.63;;;25.30;99.90;;;;;;4990124;28;20049;-82
2022/09/06 08:51:43;;;;;;;1.70;0.80;;;25.50;99.90;;;;;;4990231;28;20084;-82
2022/09/06 08:54:27;;;;;;;1.80;0.70;;;25.50;99.90;;;;;;4978611;28;20046;-82
2022/09/06 08:57:00;;;;;;;2.47;0.63;;;25.80;99.90;;;;;;4989572;28;20053;-82
2022/09/06 08:59:28;;;;;;;1.20;0.60;;;26.00;99.90;;;;;;4961984;28;20062;-81
2022/09/06 09:02:08;;;;;;;1.85;0.70;;;26.30;99.90;;;;;;4990432;28;20507;-81
2022/09/06 09:04:35;;;;;;;1.42;0.52;;;26.40;99.90;;;;;;4990368;28;20375;-82
2022/09/06 09:07:23;;;;;;;2.92;0.70;;;26.40;99.90;;;;;;4964229;28;20049;-81
2022/09/06 09:09:50;;;;;;;2.53;0.88;;;26.50;99.90;;;;;;4978526;28;20061;-81
2022/09/06 09:12:22;;;;;;;1.10;0.50;;;26.50;99.90;;;;;;4987419;28;20045;-82
2022/09/06 09:14:54;;;;;;;3.60;0.60;;;26.60;99.90;;;;;;4979104;28;20062;-83
2022/09/06 09:17:29;;;;;;;1.88;0.55;;;26.50;99.90;;;;;;4979400;28;20022;-80
2022/09/06 09:19:55;;;;;;;1.67;0.60;;;26.70;99.90;;;;;;4989851;28;20038;-82
2022/09/06 09:22:23;;;;;;;2.45;0.70;;;26.90;99.90;;;;;;4992730;28;20356;-81
2022/09/06 09:24:50;;;;;;;1.70;0.80;;;27.00;99.90;;;;;;4960677;28;20089;-81
2022/09/06 09:27:21;;;;;;;1.40;0.70;;;27.10;99.90;;;;;;4973669;28;20046;-81
2022/09/06 09:29:53;;;;;;;1.00;0.50;;;27.10;99.90;;;;;;4995710;28;20473;-81
2022/09/06 09:32:30;;;;;;;1.42;0.60;;;27.20;99.90;;;;;;4980130;28;20061;-82
2022/09/06 09:35:28;;;;;;;2.28;0.55;;;27.20;99.90;;;;;;4987258;28;22189;-81
2022/09/06 09:38:22;;;;;;;1.97;0.80;;;27.20;99.90;;;;;;4980108;28;20108;-81
2022/09/06 09:40:56;;;;;;;1.80;0.60;;;27.30;99.90;;;;;;4972850;28;20043;-81
2022/09/06 09:43:23;;;;;;;2.22;0.70;;;27.50;99.90;;;;;;4989573;28;20383;-83
2022/09/06 09:46:16;;;;;;;1.58;0.45;;;27.70;99.90;;;;;;4989841;28;20433;-81
2022/09/06 09:49:08;;;;;;;1.55;0.50;;;27.70;99.90;;;;;;4989546;28;20042;-81
2022/09/06 09:51:40;;;;;;;2.97;0.45;;;27.60;99.90;;;;;;4979652;28;20055;-82
2022/09/06 09:54:09;;;;;;;1.55;0.43;;;28.00;99.90;;;;;;4989359;28;20045;-81
2022/09/06 09:56:40;;;;;;;;;;;27.90;99.90;;;;;;4964850;28;20472;-81
2022/09/06 09:59:25;;;;;;;2.97;0.40;;;27.80;99.90;;;;;;4996192;28;19909;-81
2022/09/06 10:01:54;;;;;;;1.58;0.30;;;28.20;99.90;;;;;;4988022;28;20068;-82
2022/09/06 10:04:30;;;;;;;1.80;0.50;;;28.10;99.90;;;;;;4972082;28;20545;-81
2022/09/06 10:07:15;;;;;;;0.88;0.38;;;28.30;99.90;;;;;;4989659;28;20499;-82
2022/09/06 10:09:45;;;;;;;1.10;0.40;;;28.20;99.90;;;;;;4986962;28;20038;-81
2022/09/06 10:12:34;;;;;;;0.68;0.20;;;28.50;99.90;;;;;;4975843;28;20056;-82
2022/09/06 10:14:59;;;;;;;2.45;0.30;;;28.00;99.90;;;;;;4978052;28;20049;-81
2022/09/06 10:17:35;;;;;;;1.75;0.30;;;28.60;99.90;;;;;;4988759;28;20084;-80
2022/09/06 10:20:11;;;;;;;1.30;0.30;;;28.70;99.90;;;;;;4989036;28;20038;-81
2022/09/06 10:23:06;;;;;;;1.55;0.30;;;28.80;99.90;;;;;;4989483;28;20049;-81
2022/09/06 10:25:54;;;;;;;2.05;0.30;;;28.40;99.90;;;;;;4944111;28;20054;-83
2022/09/06 10:28:42;;;;;;;0.73;0.30;;;28.60;99.90;;;;;;4985891;28;20038;-83
2022/09/06 10:31:33;;;;;;;1.20;0.40;;;29.10;99.90;;;;;;4992619;28;20061;-82
2022/09/06 10:34:07;;;;;;;2.45;0.30;;;28.70;99.90;;;;;;4961026;28;20097;-83
2022/09/06 10:36:43;;;;;;;2.55;0.30;;;29.10;99.90;;;;;;4988028;28;20067;-82
2022/09/06 10:39:28;;;;;;;0.82;0.32;;;28.80;99.90;;;;;;4989483;28;20061;-84
2022/09/06 10:41:54;;;;;;;1.05;0.30;;;28.30;99.90;;;;;;4987235;28;20050;-82
2022/09/06 10:44:41;;;;;;;0.50;0.30;;;28.80;99.90;;;;;;4974982;28;20030;-83
2022/09/06 10:47:14;;;;;;;0.40;0.20;;;29.40;99.90;;;;;;4986929;28;20033;-83
2022/09/06 10:49:45;;;;;;;0.75;0.20;;;29.70;99.90;;;;;;4976515;28;20133;-84
2022/09/06 10:52:18;;;;;;;1.55;0.30;;;29.60;99.90;;;;;;4978454;28;20034;-84
2022/09/06 10:54:46;;;;;;;0.63;0.20;;;29.50;99.90;;;;;;4963980;28;20145;-82
2022/09/06 10:57:20;;;;;;;1.25;0.28;;;29.40;99.90;;;;;;4987650;28;20109;-83
2022/09/06 10:59:52;;;;;;;1.60;0.30;;;29.20;99.90;;;;;;4985695;28;20022;-82
2022/09/06 11:02:43;;;;;;;0.80;0.30;;;28.50;99.90;;;;;;4977882;28;20456;-82
2022/09/06 11:05:51;;;;;;;1.13;0.20;;;28.70;99.90;;;;;;4999520;28;20450;-81
2022/09/06 11:08:46;;;;;;;0.93;0.20;;;29.40;99.90;;;;;;5002181;28;22340;-83
2022/09/06 11:11:46;;;;;;;0.95;0.17;;;29.40;99.90;;;;;;5003981;28;20022;-83
2022/09/06 11:14:14;;;;;;;0.55;0.20;;;29.20;99.90;;;;;;4977042;28;20514;-82
2022/09/06 11:17:04;;;;;;;1.17;0.20;;;29.80;99.90;;;;;;4984760;28;20545;-83
2022/09/06 11:19:47;;;;;;;2.22;0.20;;;29.90;99.90;;;;;;4983141;28;20696;-84
2022/09/06 11:22:35;;;;;;;0.85;0.20;;;29.80;99.90;;;;;;4976736;28;20172;-83
2022/09/06 11:25:21;;;;;;;0.57;0.20;;;30.00;99.90;;;;;;4975551;28;20057;-83
2022/09/06 11:27:52;;;;;;;0.57;0.20;;;30.60;99.90;;;;;;4981467;28;20027;-83
2022/09/06 11:30:18;;;;;;;1.13;0.20;;;30.60;99.90;;;;;;4976938;28;20502;-82
2022/09/06 11:32:51;;;;;;;0.70;0.20;;;30.50;99.90;;;;;;4980677;28;20030;-83
2022/09/06 11:35:31;;;;;;;1.42;0.13;;;30.20;99.90;;;;;;4994346;28;20044;-81
2022/09/06 11:38:17;;;;;;;1.75;0.20;;;30.10;99.90;;;;;;4978195;28;20029;-82
2022/09/06 11:40:46;;;;;;;2.60;0.15;;;29.60;99.90;;;;;;4990987;28;20053;-82
2022/09/06 11:43:40;;;;;;;1.17;0.10;;;30.20;99.90;;;;;;4988366;28;20443;-82
2022/09/06 11:46:06;;;;;;;3.97;0.73;;;30.10;99.90;;;;;;4980573;28;20044;-83
2022/09/06 11:48:41;;;;;;;1.17;0.40;;;28.70;99.90;;;;;;4978805;28;20018;-83
2022/09/06 11:51:11;;;;;;;1.33;0.30;;;28.80;99.90;;;;;;4991800;28;20032;-83
2022/09/06 11:53:49;;;;;;;2.95;0.30;;;29.00;99.90;;;;;;4966524;28;20505;-83
2022/09/06 11:56:31;;;;;;;2.45;0.40;;;29.50;99.90;;;;;;4982860;28;20042;-84
2022/09/06 11:59:11;;;;;;;2.35;0.30;;;28.90;99.90;;;;;;4989876;28;20038;-81
2022/09/06 12:01:39;;;;;;;2.60;0.38;;;28.60;99.90;;;;;;4989312;28;20022;-83
2022/09/06 12:04:07;;;;;;;3.00;0.50;;;29.00;99.90;;;;;;4981119;28;20117;-84
2022/09/06 12:06:34;;;;;;;0.85;0.30;;;29.00;99.90;;;;;;4984244;28;20147;-83
2022/09/06 12:09:01;;;;;;;2.72;0.30;;;29.20;99.90;;;;;;4994520;28;20490;-83
2022/09/06 12:11:41;;;;;;;3.30;0.30;;;29.60;99.90;;;;;;4989950;28;20095;-84
2022/09/06 12:14:32;;;;;;;2.05;0.40;;;30.00;99.90;;;;;;4993903;28;20132;-83
2022/09/06 12:16:59;;;;;;;0.98;0.30;;;29.40;99.90;;;;;;4992394;28;20065;-82
2022/09/06 12:19:45;;;;;;;1.75;0.20;;;29.70;99.90;;;;;;4997933;28;20034;-83
2022/09/06 12:22:28;;;;;;;1.13;0.20;;;30.20;99.90;;;;;;4990968;28;20385;-83
2022/09/06 12:24:59;;;;;;;2.13;0.30;;;29.70;99.90;;;;;;4957305;28;20498;-83
2022/09/06 12:27:38;;;;;;;1.88;0.40;;;28.80;99.90;;;;;;4966847;28;20069;-82
2022/09/06 12:30:12;;;;;;;1.30;0.30;;;28.50;99.90;;;;;;4965247;28;20035;-83
2022/09/06 12:32:45;;;;;;;1.42;0.30;;;28.60;99.90;;;;;;4966288;28;20046;-82
2022/09/06 12:35:26;;;;;;;1.60;0.28;;;28.90;99.90;;;;;;4993995;28;20042;-82
2022/09/06 12:38:00;;;;;;;2.10;0.40;;;29.20;99.90;;;;;;4996606;28;20022;-86
2022/09/06 12:40:29;;;;;;;2.75;0.35;;;29.10;99.90;;;;;;4979298;28;20042;-83
2022/09/06 12:42:55;;;;;;;1.17;0.20;;;29.20;99.90;;;;;;4977573;28;20463;-83
2022/09/06 12:45:23;;;;;;;0.85;0.30;;;29.80;99.90;;;;;;4982102;28;20130;-83
2022/09/06 12:48:07;;;;;;;1.13;0.30;;;29.90;99.90;;;;;;4982097;28;20078;-83
2022/09/06 12:50:33;;;;;;;1.30;0.35;;;29.70;99.90;;;;;;4973430;28;20041;-83
2022/09/06 12:53:02;;;;;;;0.68;0.30;;;29.20;99.90;;;;;;4990927;28;20042;-84
2022/09/06 12:55:32;;;;;;;1.83;0.38;;;29.40;99.90;;;;;;4997098;28;20038;-85
2022/09/06 12:58:05;;;;;;;2.20;0.50;;;28.90;99.90;;;;;;4992993;28;20105;-84
2022/09/06 13:00:43;;;;;;;1.65;0.40;;;28.80;99.90;;;;;;4993744;28;20026;-84
2022/09/06 13:03:30;;;;;;;3.03;0.40;;;28.70;99.90;;;;;;4989272;28;20026;-83
2022/09/06 13:05:59;;;;;;;2.42;0.30;;;28.80;99.90;;;;;;4991301;28;20045;-83
2022/09/06 13:08:30;;;;;;;2.15;0.30;;;28.90;99.90;;;;;;4981202;28;20030;-83